Time;durP1;ratioP1;P1;durP2;ratioP2;P2;SDS_P1;SDS_P2;PMS_P1;PMS_P2;Temp;Humidity;BMP_temperature;BMP_pressure;BME280_temperature;BME280_humidity;BME280_pressure;Samples;Min_cycle;Max_cycle;Signal;HPM_P1;HPM_P2
2021/07/28 00:00:11;;;;;;;0.10;0.10;;;17.00;99.90;;;;;;5031137;28;20037;-85
2021/07/28 00:02:42;;;;;;;0.28;0.28;;;17.00;99.90;;;;;;5030070;28;20030;-85
2021/07/28 00:05:09;;;;;;;1.13;1.02;;;16.80;99.90;;;;;;5029988;28;20569;-85
2021/07/28 00:07:35;;;;;;;2.72;0.45;;;16.70;99.90;;;;;;5031082;28;20542;-84
2021/07/28 00:10:01;;;;;;;0.30;0.30;;;16.70;99.90;;;;;;5029764;28;20029;-85
2021/07/28 00:12:27;;;;;;;0.30;0.30;;;16.70;99.90;;;;;;5031210;28;20477;-85
2021/07/28 00:14:52;;;;;;;0.40;0.40;;;16.70;99.90;;;;;;5031218;28;20060;-85
2021/07/28 00:17:18;;;;;;;0.43;0.43;;;16.80;99.90;;;;;;5030846;28;20018;-85
2021/07/28 00:25:05;;;;;;;0.20;0.20;;;16.80;99.90;;;;;;5031338;28;20111;-85
2021/07/28 00:27:31;;;;;;;0.70;0.68;;;16.80;99.90;;;;;;5030920;28;20060;-85
2021/07/28 00:29:56;;;;;;;1.70;0.93;;;16.70;99.90;;;;;;5029619;28;20406;-85
2021/07/28 00:32:22;;;;;;;0.20;0.20;;;16.70;99.90;;;;;;5043809;28;20024;-85
2021/07/28 00:34:48;;;;;;;0.93;0.27;;;16.60;99.90;;;;;;5046608;28;20037;-85
2021/07/28 00:37:14;;;;;;;0.40;0.40;;;16.50;99.90;;;;;;5030807;28;20545;-85
2021/07/28 00:39:39;;;;;;;0.93;0.53;;;16.60;99.90;;;;;;5031098;28;20033;-85
2021/07/28 00:42:05;;;;;;;0.60;0.50;;;16.80;99.90;;;;;;5031092;28;20482;-84
2021/07/28 00:44:31;;;;;;;0.30;0.30;;;17.00;99.90;;;;;;5031035;28;20428;-85
2021/07/28 00:46:57;;;;;;;0.67;0.67;;;17.00;99.90;;;;;;5031163;28;20117;-85
2021/07/28 00:49:24;;;;;;;0.40;0.40;;;16.90;99.90;;;;;;5030946;28;20844;-85
2021/07/28 00:51:51;;;;;;;2.90;0.47;;;16.90;99.90;;;;;;5031015;28;20033;-85
2021/07/28 00:54:17;;;;;;;0.60;0.60;;;17.00;99.90;;;;;;5030783;28;20097;-85
2021/07/28 00:56:43;;;;;;;1.50;0.67;;;17.10;99.90;;;;;;5030652;28;20647;-85
2021/07/28 00:59:09;;;;;;;1.15;1.05;;;17.00;99.90;;;;;;5030844;28;20037;-85
2021/07/28 01:01:37;;;;;;;2.03;0.30;;;17.00;99.90;;;;;;5030756;28;20053;-85
2021/07/28 01:04:03;;;;;;;0.30;0.30;;;17.00;99.90;;;;;;5030739;28;20113;-85
2021/07/28 01:06:30;;;;;;;0.30;0.30;;;17.00;99.90;;;;;;5030362;28;20100;-85
2021/07/28 01:08:57;;;;;;;0.43;0.43;;;16.90;99.90;;;;;;5048287;28;20029;-85
2021/07/28 01:11:24;;;;;;;0.30;0.30;;;16.90;99.90;;;;;;5050156;28;20021;-85
2021/07/28 01:13:50;;;;;;;1.13;1.13;;;16.80;99.90;;;;;;5050552;28;20048;-85
2021/07/28 01:16:23;;;;;;;4.57;0.93;;;16.60;99.90;;;;;;5050423;28;20772;-85
2021/07/28 01:18:50;;;;;;;0.30;0.30;;;16.50;99.90;;;;;;5050368;28;20028;-85
2021/07/28 01:21:19;;;;;;;0.10;0.10;;;16.40;99.90;;;;;;5050468;28;20029;-85
2021/07/28 01:23:47;;;;;;;2.47;1.60;;;16.50;99.90;;;;;;5049938;28;20043;-85
2021/07/28 01:26:14;;;;;;;0.55;0.55;;;16.50;99.90;;;;;;5050328;28;20412;-85
2021/07/28 01:28:40;;;;;;;0.28;0.28;;;16.40;99.90;;;;;;5049871;28;20071;-85
2021/07/28 01:31:08;;;;;;;0.27;0.27;;;16.50;99.90;;;;;;5050062;28;20021;-85
2021/07/28 01:33:36;;;;;;;1.02;0.52;;;16.60;99.90;;;;;;5049336;28;20048;-85
2021/07/28 01:36:05;;;;;;;0.20;0.20;;;16.80;99.90;;;;;;5049848;28;20048;-85
2021/07/28 01:38:31;;;;;;;0.47;0.38;;;16.80;99.90;;;;;;5047920;28;20024;-84
2021/07/28 01:41:03;;;;;;;0.10;0.10;;;16.80;99.90;;;;;;5032151;28;20032;-85
2021/07/28 01:43:29;;;;;;;0.30;0.30;;;16.90;99.90;;;;;;5033918;28;20477;-85
2021/07/28 01:45:56;;;;;;;0.50;0.50;;;16.90;99.90;;;;;;5034077;28;20104;-84
2021/07/28 01:48:22;;;;;;;0.88;0.77;;;16.90;99.90;;;;;;5033595;28;20121;-85
2021/07/28 01:50:48;;;;;;;0.77;0.70;;;16.90;99.90;;;;;;5034002;28;20572;-85
2021/07/28 01:53:14;;;;;;;0.20;0.20;;;16.90;99.90;;;;;;5034225;28;20383;-85
2021/07/28 01:55:41;;;;;;;3.38;1.08;;;17.00;99.90;;;;;;5033514;28;20042;-84
2021/07/28 01:58:08;;;;;;;0.47;0.47;;;17.00;99.90;;;;;;5033339;28;20127;-85
2021/07/28 02:00:34;;;;;;;0.28;0.28;;;16.90;99.90;;;;;;5033748;28;20436;-85
2021/07/28 02:03:03;;;;;;;0.52;0.52;;;17.00;99.90;;;;;;5033809;28;20037;-85
2021/07/28 02:05:34;;;;;;;0.28;0.28;;;16.90;99.90;;;;;;5033854;28;20025;-84
2021/07/28 02:08:04;;;;;;;0.10;0.10;;;17.00;99.90;;;;;;5032359;28;20029;-85
2021/07/28 02:10:32;;;;;;;0.52;0.52;;;17.00;99.90;;;;;;5033400;28;20029;-84
2021/07/28 02:12:58;;;;;;;1.15;0.95;;;17.00;99.90;;;;;;5033554;28;20029;-85
2021/07/28 02:15:24;;;;;;;0.90;0.90;;;16.90;99.90;;;;;;5038253;28;20049;-85
2021/07/28 02:17:51;;;;;;;0.70;0.70;;;16.90;99.90;;;;;;5053389;28;20044;-85
2021/07/28 02:20:18;;;;;;;0.47;0.47;;;16.80;99.90;;;;;;5053949;28;20040;-85
2021/07/28 02:22:44;;;;;;;0.40;0.40;;;16.80;99.90;;;;;;5053265;28;20055;-85
2021/07/28 02:25:11;;;;;;;0.93;0.93;;;16.90;99.90;;;;;;5053254;28;20036;-85
2021/07/28 02:27:36;;;;;;;0.85;0.85;;;16.80;99.90;;;;;;5053177;28;20106;-85
2021/07/28 02:30:05;;;;;;;2.37;0.67;;;16.80;99.90;;;;;;5051972;28;20033;-85
2021/07/28 02:32:31;;;;;;;0.30;0.30;;;16.80;99.90;;;;;;5052869;28;20078;-85
2021/07/28 02:34:57;;;;;;;0.93;0.80;;;16.80;99.90;;;;;;5052928;28;20079;-85
2021/07/28 02:37:23;;;;;;;2.23;0.43;;;16.80;99.90;;;;;;5051533;28;20036;-84
2021/07/28 02:39:49;;;;;;;0.83;0.77;;;16.80;99.90;;;;;;5053033;28;20443;-85
2021/07/28 02:42:14;;;;;;;0.27;0.27;;;16.80;99.90;;;;;;5053070;28;20032;-85
2021/07/28 02:44:41;;;;;;;0.43;0.43;;;16.80;99.90;;;;;;5052761;28;20118;-85
2021/07/28 02:47:07;;;;;;;;;;;16.80;99.90;;;;;;5051929;28;20037;-85
2021/07/28 02:49:33;;;;;;;0.20;0.20;;;16.80;99.90;;;;;;5052882;28;19909;-85
2021/07/28 02:51:58;;;;;;;2.17;0.60;;;16.80;99.90;;;;;;5052998;28;20810;-85
2021/07/28 02:54:24;;;;;;;0.20;0.20;;;16.80;99.90;;;;;;5052827;28;20550;-85
2021/07/28 02:56:50;;;;;;;0.60;0.60;;;16.80;99.90;;;;;;5052308;28;20761;-85
2021/07/28 02:59:16;;;;;;;1.77;0.90;;;16.90;99.90;;;;;;5051454;28;20029;-85
2021/07/28 03:01:43;;;;;;;0.73;0.73;;;16.90;99.90;;;;;;5052741;28;20318;-85
2021/07/28 03:04:09;;;;;;;1.87;0.50;;;16.80;99.90;;;;;;5052499;28;20060;-85
2021/07/28 03:06:35;;;;;;;0.87;0.77;;;16.80;99.90;;;;;;5051436;28;20021;-85
2021/07/28 03:09:01;;;;;;;0.50;0.50;;;16.70;99.90;;;;;;5052342;28;20033;-85
2021/07/28 03:11:27;;;;;;;0.70;0.70;;;16.80;99.90;;;;;;5052523;28;20094;-85
2021/07/28 03:13:52;;;;;;;0.50;0.50;;;16.70;99.90;;;;;;5038411;28;20034;-84
2021/07/28 03:16:18;;;;;;;0.30;0.30;;;16.70;99.90;;;;;;5032584;28;20023;-85
2021/07/28 03:18:44;;;;;;;3.97;1.57;;;16.60;99.90;;;;;;5032362;28;20409;-85
2021/07/28 03:21:10;;;;;;;0.20;0.20;;;16.50;99.90;;;;;;5030931;28;20033;-85
2021/07/28 03:23:36;;;;;;;0.93;0.90;;;16.40;99.90;;;;;;5032324;28;20037;-84
2021/07/28 03:26:02;;;;;;;1.20;1.10;;;16.40;99.90;;;;;;5032067;28;20030;-85
2021/07/28 03:28:28;;;;;;;0.83;0.83;;;16.30;99.90;;;;;;5032114;28;20775;-85
2021/07/28 03:30:53;;;;;;;0.63;0.63;;;16.30;99.90;;;;;;5031743;28;20846;-85
2021/07/28 03:33:20;;;;;;;0.40;0.40;;;16.40;99.90;;;;;;5030659;28;20076;-85
2021/07/28 03:35:45;;;;;;;2.33;0.82;;;16.40;99.90;;;;;;5046878;28;20056;-85
2021/07/28 03:38:12;;;;;;;7.80;2.30;;;16.30;99.90;;;;;;5031638;28;20526;-85
2021/07/28 03:40:38;;;;;;;0.57;0.57;;;16.40;99.90;;;;;;5031971;28;20272;-84
2021/07/28 03:43:05;;;;;;;2.17;1.38;;;16.40;99.90;;;;;;5031647;28;20033;-85
2021/07/28 03:45:31;;;;;;;1.83;1.17;;;16.40;99.90;;;;;;5031856;28;20052;-85
2021/07/28 03:47:57;;;;;;;0.70;0.70;;;16.30;99.90;;;;;;5031395;28;20497;-85
2021/07/28 03:50:22;;;;;;;1.30;1.07;;;16.30;99.90;;;;;;5031606;28;20652;-84
2021/07/28 03:52:48;;;;;;;0.73;0.73;;;16.20;99.90;;;;;;5031446;28;20032;-85
2021/07/28 03:55:14;;;;;;;0.67;0.57;;;16.10;99.90;;;;;;5031485;28;20033;-85
2021/07/28 03:57:40;;;;;;;1.03;0.87;;;16.10;99.90;;;;;;5030128;28;20540;-85
2021/07/28 04:00:07;;;;;;;0.47;0.47;;;16.20;99.90;;;;;;5031606;28;20272;-85
2021/07/28 04:02:32;;;;;;;;;;;16.20;99.90;;;;;;5031768;28;20033;-85
2021/07/28 04:04:58;;;;;;;0.20;0.20;;;16.30;99.90;;;;;;5030820;28;19992;-85
2021/07/28 04:07:24;;;;;;;0.87;0.60;;;16.40;99.90;;;;;;5031512;28;20061;-85
2021/07/28 04:09:50;;;;;;;1.23;1.13;;;16.40;99.90;;;;;;5031071;28;20097;-85
2021/07/28 04:12:16;;;;;;;0.10;0.10;;;16.40;99.90;;;;;;5030961;28;20025;-85
2021/07/28 04:14:42;;;;;;;0.50;0.47;;;16.30;99.90;;;;;;5031114;28;20021;-85
2021/07/28 04:17:07;;;;;;;3.40;1.00;;;16.30;99.90;;;;;;5030442;28;20267;-85
2021/07/28 04:19:33;;;;;;;1.30;0.30;;;16.30;99.90;;;;;;5030771;28;20030;-84
2021/07/28 04:21:59;;;;;;;1.00;0.97;;;16.20;99.90;;;;;;5031058;28;20456;-85
2021/07/28 04:24:25;;;;;;;0.33;0.33;;;16.30;99.90;;;;;;5030867;28;20091;-85
2021/07/28 04:26:50;;;;;;;0.33;0.33;;;16.30;99.90;;;;;;5030878;28;20104;-85
2021/07/28 04:29:16;;;;;;;0.90;0.90;;;16.40;99.90;;;;;;5030288;28;20827;-85
2021/07/28 04:31:42;;;;;;;0.40;0.40;;;16.40;99.90;;;;;;5030506;28;20600;-85
2021/07/28 04:34:08;;;;;;;1.60;0.73;;;16.40;99.90;;;;;;5036963;28;20025;-85
2021/07/28 04:36:33;;;;;;;0.33;0.33;;;16.30;99.90;;;;;;5050589;28;20511;-84
2021/07/28 04:39:01;;;;;;;0.30;0.30;;;16.40;99.90;;;;;;5049316;28;20490;-85
2021/07/28 04:41:27;;;;;;;1.20;1.08;;;16.30;99.90;;;;;;5050552;28;20032;-85
2021/07/28 04:43:53;;;;;;;0.60;0.60;;;16.40;99.90;;;;;;5050535;28;20029;-84
2021/07/28 04:46:20;;;;;;;2.33;0.70;;;16.50;99.90;;;;;;5050302;28;20040;-84
2021/07/28 04:48:49;;;;;;;0.50;0.50;;;16.40;99.90;;;;;;5049010;28;20112;-85
2021/07/28 04:51:15;;;;;;;1.50;1.23;;;16.40;99.90;;;;;;5050057;28;20116;-85
2021/07/28 04:53:41;;;;;;;1.45;0.57;;;16.40;99.90;;;;;;5050340;28;20032;-85
2021/07/28 04:56:07;;;;;;;3.33;1.10;;;16.40;99.90;;;;;;5050396;28;20041;-85
2021/07/28 04:58:33;;;;;;;1.00;0.77;;;16.40;99.90;;;;;;5050356;28;20032;-85
2021/07/28 05:00:58;;;;;;;0.20;0.20;;;16.50;99.90;;;;;;5049033;28;20074;-85
2021/07/28 05:03:24;;;;;;;0.83;0.60;;;16.50;99.90;;;;;;5049867;28;20032;-85
2021/07/28 05:05:50;;;;;;;0.67;0.67;;;16.50;99.90;;;;;;5050159;28;20021;-84
2021/07/28 05:08:16;;;;;;;1.52;1.23;;;16.50;99.90;;;;;;5050181;28;20048;-85
2021/07/28 05:10:42;;;;;;;0.60;0.60;;;16.50;99.90;;;;;;5050232;28;20060;-84
2021/07/28 05:13:08;;;;;;;0.52;0.52;;;16.60;99.90;;;;;;5050101;28;20480;-85
2021/07/28 05:15:34;;;;;;;1.60;0.67;;;16.60;99.90;;;;;;5049723;28;20035;-85
2021/07/28 05:17:59;;;;;;;1.57;0.60;;;16.50;99.90;;;;;;5049947;28;20485;-85
2021/07/28 05:20:25;;;;;;;0.60;0.60;;;16.50;99.90;;;;;;5050219;28;20048;-85
2021/07/28 05:22:51;;;;;;;0.50;0.50;;;16.50;99.90;;;;;;5048954;28;20076;-85
2021/07/28 05:25:17;;;;;;;0.83;0.83;;;16.50;99.90;;;;;;5049853;28;20025;-85
2021/07/28 05:27:43;;;;;;;5.17;0.97;;;16.60;99.90;;;;;;5050197;28;20260;-85
2021/07/28 05:30:10;;;;;;;0.20;0.20;;;16.60;99.90;;;;;;5050300;28;20112;-85
2021/07/28 05:32:36;;;;;;;4.95;1.98;;;16.60;99.90;;;;;;5049986;28;20029;-85
2021/07/28 05:35:02;;;;;;;2.25;1.63;;;16.60;99.90;;;;;;5034871;28;20039;-85
2021/07/28 05:37:28;;;;;;;1.08;1.02;;;16.70;99.90;;;;;;5029024;28;20103;-85
2021/07/28 05:39:55;;;;;;;0.57;0.57;;;16.80;99.90;;;;;;5039759;28;20028;-85
2021/07/28 05:42:20;;;;;;;1.65;1.55;;;16.90;99.90;;;;;;5048510;28;20416;-85
2021/07/28 05:44:46;;;;;;;2.83;0.80;;;16.80;99.90;;;;;;5050062;28;20027;-85
2021/07/28 05:47:12;;;;;;;1.70;0.73;;;16.90;99.90;;;;;;5050001;28;20059;-85
2021/07/28 05:49:38;;;;;;;0.53;0.53;;;17.00;99.90;;;;;;5049836;28;20032;-85
2021/07/28 05:52:04;;;;;;;1.03;0.93;;;17.30;99.90;;;;;;5048779;28;20021;-85
2021/07/28 05:54:30;;;;;;;0.22;0.22;;;17.50;99.90;;;;;;5048264;28;20311;-85
2021/07/28 05:56:56;;;;;;;0.67;0.47;;;18.00;99.90;;;;;;5049710;28;20045;-85
2021/07/28 05:59:22;;;;;;;1.13;1.03;;;18.60;99.90;;;;;;5049574;28;20036;-85
2021/07/28 06:01:48;;;;;;;0.80;0.80;;;17.80;99.90;;;;;;5049742;28;20036;-85
2021/07/28 06:04:14;;;;;;;0.70;0.70;;;17.40;99.90;;;;;;5049725;28;20029;-85
2021/07/28 06:06:40;;;;;;;0.87;0.87;;;17.40;99.90;;;;;;5049571;28;20040;-85
2021/07/28 06:09:05;;;;;;;0.93;0.73;;;17.80;99.90;;;;;;5049515;28;20500;-85
2021/07/28 06:11:31;;;;;;;1.13;0.53;;;18.20;99.90;;;;;;5049461;28;20025;-85
2021/07/28 06:13:57;;;;;;;0.70;0.67;;;18.30;99.90;;;;;;5049593;28;20143;-85
2021/07/28 06:16:23;;;;;;;0.10;0.10;;;18.00;99.90;;;;;;5049773;28;20445;-85
2021/07/28 06:18:49;;;;;;;1.13;1.03;;;17.90;99.90;;;;;;5048445;28;20021;-85
2021/07/28 06:21:15;;;;;;;0.33;0.33;;;17.60;99.90;;;;;;5050018;28;20778;-85
2021/07/28 06:23:41;;;;;;;0.17;0.17;;;17.80;99.90;;;;;;5049570;28;20029;-85
2021/07/28 06:26:07;;;;;;;;;;;18.20;99.90;;;;;;5050648;28;20091;-85
2021/07/28 06:28:33;;;;;;;1.45;0.77;;;19.10;99.90;;;;;;5051976;28;20371;-85
2021/07/28 06:30:59;;;;;;;1.17;0.47;;;19.80;99.90;;;;;;5053460;28;20116;-85
2021/07/28 06:33:25;;;;;;;0.70;0.70;;;19.40;99.90;;;;;;5052042;28;20128;-85
2021/07/28 06:35:52;;;;;;;0.30;0.30;;;18.90;99.90;;;;;;5053443;28;20021;-85
2021/07/28 06:38:19;;;;;;;0.65;0.50;;;18.60;99.90;;;;;;5053197;28;20052;-85
2021/07/28 06:40:46;;;;;;;0.63;0.63;;;18.70;99.90;;;;;;5052111;28;20033;-85
2021/07/28 06:43:12;;;;;;;;;;;18.70;99.90;;;;;;5052382;28;20053;-85
2021/07/28 06:45:38;;;;;;;0.75;0.57;;;18.70;99.90;;;;;;5052954;28;19932;-85
2021/07/28 06:48:04;;;;;;;0.25;0.25;;;18.90;99.90;;;;;;5051964;28;20083;-85
2021/07/28 06:50:30;;;;;;;0.20;0.10;;;19.70;99.90;;;;;;5053278;28;20441;-85
2021/07/28 06:52:56;;;;;;;0.60;0.60;;;24.00;99.90;;;;;;5051935;28;20791;-85
2021/07/28 06:55:22;;;;;;;;;;;25.60;99.90;;;;;;5053870;28;20021;-85
2021/07/28 06:57:48;;;;;;;0.73;0.70;;;26.10;99.90;;;;;;5053606;28;19912;-85
2021/07/28 07:00:14;;;;;;;0.67;0.53;;;25.00;99.90;;;;;;5053587;28;20028;-85
2021/07/28 07:02:40;;;;;;;0.35;0.35;;;23.00;99.90;;;;;;5053385;28;20279;-85
2021/07/28 07:05:06;;;;;;;0.10;0.10;;;22.50;99.90;;;;;;5052032;28;20035;-85
2021/07/28 07:07:32;;;;;;;0.17;0.17;;;22.20;99.90;;;;;;5053328;28;20291;-85
2021/07/28 07:09:58;;;;;;;0.38;0.38;;;21.80;99.90;;;;;;5053104;28;20040;-85
2021/07/28 07:12:24;;;;;;;0.77;0.20;;;23.10;99.90;;;;;;5053151;28;20035;-85
2021/07/28 07:14:50;;;;;;;0.52;0.52;;;23.70;99.90;;;;;;5053118;28;20268;-85
2021/07/28 07:17:16;;;;;;;0.28;0.28;;;21.90;99.90;;;;;;5053178;28;20029;-84
2021/07/28 07:19:42;;;;;;;0.20;0.20;;;20.20;99.90;;;;;;5052820;28;20025;-85
2021/07/28 07:22:09;;;;;;;0.10;0.10;;;19.50;99.90;;;;;;5053124;28;20036;-85
2021/07/28 07:24:35;;;;;;;0.50;0.40;;;19.20;99.90;;;;;;5036058;28;20099;-85
2021/07/28 07:27:01;;;;;;;0.00;0.00;;;19.30;99.90;;;;;;5032474;28;20082;-85
2021/07/28 07:29:27;;;;;;;0.70;0.30;;;19.40;99.90;;;;;;5030815;28;20018;-85
2021/07/28 07:31:53;;;;;;;0.30;0.22;;;20.10;99.90;;;;;;5032556;28;20600;-85
2021/07/28 07:34:20;;;;;;;6.53;0.70;;;20.40;99.90;;;;;;5032362;28;20026;-85
2021/07/28 07:36:46;;;;;;;0.30;0.30;;;21.20;99.90;;;;;;5032179;28;20025;-85
2021/07/28 07:39:12;;;;;;;0.90;0.85;;;22.20;99.90;;;;;;5031562;28;20034;-85
2021/07/28 07:41:38;;;;;;;0.00;0.00;;;22.40;99.90;;;;;;5031555;28;20036;-85
2021/07/28 07:44:04;;;;;;;0.67;0.67;;;22.30;99.90;;;;;;5032510;28;20029;-85
2021/07/28 07:46:30;;;;;;;;;;;21.90;99.90;;;;;;5033041;28;20264;-85
2021/07/28 07:48:56;;;;;;;2.30;0.40;;;21.70;99.90;;;;;;5032471;28;19964;-85
2021/07/28 07:51:30;;;;;;;0.20;0.20;;;21.20;99.90;;;;;;5032221;28;20537;-85
2021/07/28 07:53:58;;;;;;;0.13;0.00;;;20.50;99.90;;;;;;5031960;28;20695;-85
2021/07/28 07:56:24;;;;;;;0.22;0.22;;;19.80;99.90;;;;;;5031836;28;20053;-85
2021/07/28 07:58:50;;;;;;;0.20;0.20;;;19.20;99.90;;;;;;5031711;28;20563;-85
2021/07/28 08:01:16;;;;;;;0.00;0.00;;;20.20;99.90;;;;;;5031850;28;20056;-85
2021/07/28 08:03:42;;;;;;;0.63;0.53;;;20.30;99.90;;;;;;5031640;28;20559;-85
2021/07/28 08:06:09;;;;;;;0.30;0.20;;;20.50;99.90;;;;;;5031648;28;20025;-85
2021/07/28 08:08:38;;;;;;;0.55;0.30;;;21.70;99.90;;;;;;5031527;28;20063;-85
2021/07/28 08:11:12;;;;;;;0.20;0.20;;;21.60;99.90;;;;;;5031183;28;20067;-85
2021/07/28 08:13:38;;;;;;;0.20;0.20;;;20.80;99.90;;;;;;5031413;28;20036;-85
2021/07/28 08:16:14;;;;;;;0.38;0.32;;;20.50;99.90;;;;;;5030010;28;20017;-85
2021/07/28 08:18:40;;;;;;;0.38;0.38;;;20.20;99.90;;;;;;5031607;28;20520;-85
2021/07/28 08:21:08;;;;;;;0.30;0.30;;;20.00;99.90;;;;;;5030963;28;20075;-85
2021/07/28 08:23:34;;;;;;;0.60;0.25;;;19.80;99.90;;;;;;5031404;28;20061;-85
2021/07/28 08:26:01;;;;;;;1.27;0.10;;;19.90;99.90;;;;;;5031290;28;20386;-85
2021/07/28 08:28:26;;;;;;;0.40;0.40;;;19.90;99.90;;;;;;5031027;28;20489;-85
2021/07/28 08:30:55;;;;;;;0.20;0.20;;;20.00;99.90;;;;;;5029863;28;20079;-85
2021/07/28 08:33:26;;;;;;;0.75;0.20;;;20.30;99.90;;;;;;5030730;28;20021;-85
2021/07/28 08:35:56;;;;;;;0.57;0.30;;;20.50;99.90;;;;;;5050708;28;20052;-85
2021/07/28 08:38:23;;;;;;;0.22;0.22;;;20.80;99.90;;;;;;5050381;28;20536;-85
2021/07/28 08:40:50;;;;;;;0.28;0.28;;;20.80;99.90;;;;;;5051190;28;20087;-85
2021/07/28 08:43:21;;;;;;;1.65;0.52;;;21.40;99.90;;;;;;5050577;28;20017;-85
2021/07/28 08:45:48;;;;;;;0.20;0.20;;;21.70;99.90;;;;;;5049578;28;20031;-85
2021/07/28 08:48:16;;;;;;;0.75;0.43;;;21.30;99.90;;;;;;5050871;28;20017;-85
2021/07/28 08:50:52;;;;;;;0.43;0.43;;;21.30;99.90;;;;;;5049746;28;20652;-85
2021/07/28 08:53:17;;;;;;;0.73;0.25;;;21.10;99.90;;;;;;5051085;28;20048;-85
2021/07/28 08:55:44;;;;;;;0.43;0.43;;;21.20;99.90;;;;;;5051059;28;20069;-85
2021/07/28 08:58:13;;;;;;;0.30;0.30;;;20.80;99.90;;;;;;5049563;28;20496;-85
2021/07/28 09:00:46;;;;;;;0.65;0.45;;;20.50;99.90;;;;;;5051130;28;20685;-85
2021/07/28 09:03:13;;;;;;;0.43;0.40;;;20.80;99.90;;;;;;5050702;28;20033;-85
2021/07/28 09:05:40;;;;;;;0.10;0.10;;;21.00;99.90;;;;;;5050925;28;20021;-85
2021/07/28 09:08:21;;;;;;;0.40;0.40;;;21.70;99.90;;;;;;5051057;28;20039;-85
2021/07/28 09:10:55;;;;;;;11.57;0.68;;;21.40;99.90;;;;;;5051135;28;20017;-85
2021/07/28 09:13:26;;;;;;;2.67;0.73;;;21.80;99.90;;;;;;5050849;28;20021;-85
2021/07/28 09:15:54;;;;;;;0.28;0.28;;;21.70;99.90;;;;;;5051205;28;20026;-85
2021/07/28 09:18:35;;;;;;;0.10;0.10;;;21.10;99.90;;;;;;5050861;28;20033;-85
2021/07/28 09:21:19;;;;;;;0.47;0.30;;;21.40;99.90;;;;;;5050867;28;20104;-85
2021/07/28 09:23:55;;;;;;;1.17;0.60;;;21.50;99.90;;;;;;5049695;28;20029;-85
2021/07/28 09:29:13;;;;;;;0.00;0.00;;;22.20;99.90;;;;;;5051320;28;20083;-85
2021/07/28 09:31:45;;;;;;;0.10;0.10;;;22.70;99.90;;;;;;5051320;28;20078;-85
2021/07/28 09:34:24;;;;;;;0.00;0.00;;;22.70;99.90;;;;;;5049821;28;20029;-85
2021/07/28 09:36:58;;;;;;;0.08;0.08;;;23.30;99.90;;;;;;5051302;28;20032;-85
2021/07/28 09:39:29;;;;;;;0.20;0.10;;;24.30;99.90;;;;;;5050849;28;20040;-85
2021/07/28 09:41:57;;;;;;;0.28;0.10;;;24.70;99.90;;;;;;5049826;28;20020;-85
2021/07/28 09:44:28;;;;;;;0.70;0.70;;;25.60;99.50;;;;;;5050785;28;20029;-85
2021/07/28 09:47:07;;;;;;;0.00;0.00;;;25.70;98.60;;;;;;5050892;28;20035;-85
2021/07/28 09:49:33;;;;;;;1.17;0.38;;;25.30;98.30;;;;;;5050547;28;20503;-85
2021/07/28 09:52:14;;;;;;;0.20;0.10;;;25.10;97.90;;;;;;5049943;28;20140;-85
2021/07/28 09:54:40;;;;;;;0.00;0.00;;;27.70;95.40;;;;;;5050827;28;20033;-85
2021/07/28 09:57:09;;;;;;;0.55;0.32;;;28.20;90.90;;;;;;5050567;28;20047;-85
2021/07/28 09:59:37;;;;;;;0.10;0.10;;;26.90;92.30;;;;;;5049415;28;20124;-85
2021/07/28 10:02:04;;;;;;;0.08;0.08;;;26.80;91.50;;;;;;5052893;28;20707;-85
2021/07/28 10:04:32;;;;;;;1.17;0.32;;;26.70;91.10;;;;;;5053619;28;20033;-85
2021/07/28 10:07:00;;;;;;;0.20;0.20;;;26.60;97.10;;;;;;5053519;28;20079;-85
2021/07/28 10:09:32;;;;;;;0.35;0.35;;;26.50;91.10;;;;;;5054064;28;20525;-85
2021/07/28 10:11:59;;;;;;;0.10;0.10;;;25.40;92.40;;;;;;5054607;28;20025;-85
2021/07/28 10:14:25;;;;;;;0.00;0.00;;;25.30;93.00;;;;;;5054169;28;20029;-85
2021/07/28 10:16:53;;;;;;;1.10;0.10;;;25.50;92.20;;;;;;5052751;28;20013;-85
2021/07/28 10:19:19;;;;;;;0.13;0.10;;;27.00;91.00;;;;;;5054524;28;20117;-85
2021/07/28 10:21:46;;;;;;;0.20;0.00;;;26.10;91.10;;;;;;5054082;28;20017;-85
2021/07/28 10:24:13;;;;;;;0.10;0.10;;;25.40;92.70;;;;;;5052875;28;20123;-85
2021/07/28 10:26:44;;;;;;;0.73;0.40;;;25.90;92.20;;;;;;5053844;28;20025;-85
2021/07/28 10:29:10;;;;;;;0.88;0.25;;;25.70;91.30;;;;;;5053729;28;20039;-85
2021/07/28 10:31:44;;;;;;;0.22;0.22;;;25.20;90.40;;;;;;5053489;28;20021;-85
2021/07/28 10:34:30;;;;;;;0.00;0.00;;;25.20;92.00;;;;;;5046982;28;20389;-85
2021/07/28 10:37:01;;;;;;;0.10;0.10;;;24.90;92.30;;;;;;5033818;28;20444;-85
2021/07/28 10:39:39;;;;;;;0.03;0.03;;;25.00;91.60;;;;;;5033760;28;20025;-85
2021/07/28 10:42:09;;;;;;;0.25;0.25;;;24.70;91.60;;;;;;5033683;28;20021;-85
2021/07/28 10:44:56;;;;;;;0.00;0.00;;;24.10;92.20;;;;;;5033707;28;20036;-85
2021/07/28 10:47:34;;;;;;;0.05;0.05;;;24.60;92.00;;;;;;5033555;28;20025;-85
2021/07/28 10:50:01;;;;;;;0.10;0.10;;;24.70;91.00;;;;;;5033622;28;20465;-85
2021/07/28 10:52:44;;;;;;;0.25;0.25;;;25.10;90.60;;;;;;5033524;28;20061;-85
2021/07/28 10:55:11;;;;;;;0.10;0.10;;;25.10;90.40;;;;;;5033441;28;20401;-85
2021/07/28 10:57:45;;;;;;;0.00;0.00;;;26.20;88.80;;;;;;5033067;28;20053;-85
2021/07/28 11:00:13;;;;;;;0.38;0.38;;;27.30;86.20;;;;;;5032191;28;20112;-85
2021/07/28 11:02:57;;;;;;;1.48;0.80;;;26.70;83.60;;;;;;5032014;28;20040;-85
2021/07/28 11:05:33;;;;;;;0.10;0.10;;;26.50;85.10;;;;;;5033240;28;20025;-85
2021/07/28 11:08:02;;;;;;;;;;;26.80;82.70;;;;;;5033502;28;20029;-85
2021/07/28 11:10:33;;;;;;;1.13;0.22;;;26.40;85.30;;;;;;5032888;28;19913;-85
2021/07/28 11:13:10;;;;;;;0.20;0.20;;;25.60;89.80;;;;;;5030331;28;20030;-85
2021/07/28 11:15:38;;;;;;;0.00;0.00;;;25.70;88.80;;;;;;5040015;28;20068;-86
2021/07/28 11:18:04;;;;;;;0.10;0.10;;;25.50;88.90;;;;;;5051432;28;20493;-85
2021/07/28 11:20:38;;;;;;;0.10;0.10;;;26.30;87.80;;;;;;5053015;28;20504;-85
2021/07/28 11:23:28;;;;;;;0.10;0.10;;;26.80;83.50;;;;;;5052655;28;20037;-85
2021/07/28 11:25:56;;;;;;;0.00;0.00;;;27.00;83.00;;;;;;5051300;28;20017;-85
2021/07/28 11:28:22;;;;;;;0.00;0.00;;;26.70;83.80;;;;;;5052768;28;20021;-85
2021/07/28 11:30:59;;;;;;;0.03;0.03;;;27.40;80.00;;;;;;5052556;28;20032;-85
2021/07/28 11:33:25;;;;;;;0.30;0.22;;;26.20;81.90;;;;;;5052619;28;20025;-85
2021/07/28 11:35:53;;;;;;;0.00;0.00;;;26.10;82.60;;;;;;5052421;28;20020;-85
2021/07/28 11:38:21;;;;;;;0.47;0.20;;;26.70;81.00;;;;;;5052619;28;20095;-86
2021/07/28 11:40:52;;;;;;;0.30;0.10;;;27.30;80.30;;;;;;5052283;28;20021;-86
2021/07/28 11:43:29;;;;;;;0.00;0.00;;;27.70;76.40;;;;;;5052191;28;20029;-86
2021/07/28 11:46:00;;;;;;;0.13;0.13;;;27.60;77.00;;;;;;5051944;28;20033;-85
2021/07/28 11:48:28;;;;;;;0.00;0.00;;;26.80;91.40;;;;;;5051841;28;20098;-85
2021/07/28 11:50:54;;;;;;;0.03;0.03;;;26.80;78.60;;;;;;5051844;28;20029;-86
2021/07/28 11:53:26;;;;;;;0.15;0.15;;;26.80;77.90;;;;;;5051790;28;20652;-85
2021/07/28 11:55:53;;;;;;;0.20;0.13;;;26.40;78.50;;;;;;5051898;28;20037;-85
2021/07/28 11:58:20;;;;;;;0.00;0.00;;;26.50;77.50;;;;;;5051954;28;20036;-85
2021/07/28 12:00:48;;;;;;;0.10;0.10;;;26.40;78.00;;;;;;5052170;28;20024;-86
2021/07/28 12:03:24;;;;;;;0.00;0.00;;;26.80;77.30;;;;;;5051868;28;20021;-85
2021/07/28 12:06:04;;;;;;;0.30;0.10;;;26.50;78.40;;;;;;5050729;28;20036;-85
2021/07/28 12:08:31;;;;;;;0.08;0.08;;;26.50;76.80;;;;;;5050553;28;20036;-85
2021/07/28 12:11:03;;;;;;;0.17;0.17;;;27.20;74.70;;;;;;5051636;28;20021;-85
2021/07/28 12:13:42;;;;;;;0.10;0.10;;;26.20;78.20;;;;;;5050541;28;20025;-86
2021/07/28 12:16:08;;;;;;;0.20;0.20;;;26.30;79.50;;;;;;5051601;28;20083;-85
2021/07/28 12:18:47;;;;;;;;;;;27.10;73.70;;;;;;5051843;28;20100;-85
2021/07/28 12:21:14;;;;;;;0.00;0.00;;;27.10;75.20;;;;;;5051604;28;19931;-86
2021/07/28 12:23:53;;;;;;;0.65;0.20;;;27.70;73.50;;;;;;5051481;28;20033;-85
2021/07/28 12:26:46;;;;;;;0.10;0.08;;;27.50;73.50;;;;;;5051791;28;20021;-86
2021/07/28 12:29:34;;;;;;;0.00;0.00;;;27.50;71.10;;;;;;5051278;28;20110;-85
2021/07/28 12:32:16;;;;;;;0.15;0.10;;;26.50;74.30;;;;;;5051554;28;20564;-85
2021/07/28 12:34:42;;;;;;;0.00;0.00;;;26.10;76.50;;;;;;5040494;28;20025;-85
2021/07/28 12:37:21;;;;;;;0.32;0.30;;;26.40;73.40;;;;;;5031287;28;20032;-86
2021/07/28 12:39:47;;;;;;;0.15;0.15;;;26.70;74.40;;;;;;5031459;28;20037;-86
2021/07/28 12:42:13;;;;;;;0.13;0.13;;;27.00;74.20;;;;;;5031150;28;20472;-85
2021/07/28 12:44:38;;;;;;;0.40;0.40;;;27.10;70.90;;;;;;5031391;28;20429;-85
2021/07/28 12:47:04;;;;;;;0.00;0.00;;;27.40;67.60;;;;;;5031082;28;20021;-85
2021/07/28 12:49:30;;;;;;;0.05;0.05;;;27.40;71.00;;;;;;5031383;28;20505;-86
2021/07/28 12:51:55;;;;;;;0.00;0.00;;;26.70;71.70;;;;;;5031196;28;20533;-85
2021/07/28 12:54:21;;;;;;;0.30;0.10;;;26.10;74.50;;;;;;5030819;28;20025;-85
2021/07/28 12:56:47;;;;;;;0.00;0.00;;;25.60;74.60;;;;;;5031051;28;20509;-85
2021/07/28 12:59:13;;;;;;;0.20;0.13;;;25.20;74.90;;;;;;5030792;28;20159;-85